Bertram, TX (78605)

1:30 PM CDT on July 29, 2016 (GMT -0500)
Hidden Oaks Estate in Liberty Hill, TX | | Change Station

Elev 1160 ft 30.72 °N, 97.99 °W | Updated 45 seconds ago

Clear
Clear
88.5 °F
Feels Like 94 °F
N
1.1
Wind Variable Wind from SE
Gusts 6.0 mph

Today
High -- | Low -- °F
--% Chance of Precip.
Yesterday
High -- | Low -- °F
Precip. -- in
Pressure 30.05 in
Visibility 10.0 miles
Clouds Clear
Heat Index 94 °F
Dew Point 71 °F
Humidity 56%
Rainfall 0.00 in
Snow Depth Not available.
6:48 AM 8:28 PM
Waning Crescent, 20% visible
METAR KBMQ 291753Z AUTO 16004KT 10SM CLR 30/19 A3010 RMK AO2 SLP174 T03000194 10300 20233 50000
Pressure 30.05 in
Visibility 10.0 miles
Clouds Clear
Heat Index 94 °F
Dew Point 71 °F
Humidity 56%
Rainfall 0.00 in
Snow Depth Not available.
6:48 AM 8:28 PM
Waning Crescent, 20% visible
METAR KBMQ 291753Z AUTO 16004KT 10SM CLR 30/19 A3010 RMK AO2 SLP174 T03000194 10300 20233 50000

10-Day Weather Forecast

Almanac

Astronomy

Jul. 29, 2016 Rise Set
Actual Time
Civil Twilight
Nautical Twilight
Astronomical Twilight
Moon
Length of Visible Light
Length of Day
Tomorrow will be .
, % of the Moon is Illuminated

Today's Extremes

State Highs State Lows

Community

WunderPhotos

Upload Photos

1,928,392 photos uploaded!

WunderBlog® & News

Nearby

Air Quality

  Air Quality AQ Index Pollutant
Not available.

Snow Depth

Station Depth Elevation

Earthquake Activity

City Distance Mag. Time & Date
Minimum magnitude displayed is 2.5.

Coastal Water Temperatures

Place Temperature

Stations

Nearby Weather Stations

Station Location Temp. Windchill Dew Point Humidity Wind Precip. Elev Updated Type
                   

Watches & Warnings

There are currently no watches in effect.